sensor_id;sensor_type;location;lat;lon;timestamp;temperature;humidity
10312;DHT22;5201;48.776;9.128;2022-09-09T00:00:46;17.90;99.90
10312;DHT22;5201;48.776;9.128;2022-09-09T00:06:06;18.10;99.90
10312;DHT22;5201;48.776;9.128;2022-09-09T00:08:49;17.90;99.90
10312;DHT22;5201;48.776;9.128;2022-09-09T00:11:22;17.90;99.90
10312;DHT22;5201;48.776;9.128;2022-09-09T00:13:53;17.90;99.90
10312;DHT22;5201;48.776;9.128;2022-09-09T00:16:24;17.70;99.90
10312;DHT22;5201;48.776;9.128;2022-09-09T00:22:15;17.90;99.90
10312;DHT22;5201;48.776;9.128;2022-09-09T00:24:44;17.80;99.90
10312;DHT22;5201;48.776;9.128;2022-09-09T00:27:25;17.80;99.90
10312;DHT22;5201;48.776;9.128;2022-09-09T00:32:38;17.80;99.90
10312;DHT22;5201;48.776;9.128;2022-09-09T00:37:54;18.00;99.90
10312;DHT22;5201;48.776;9.128;2022-09-09T00:40:37;18.00;99.90
10312;DHT22;5201;48.776;9.128;2022-09-09T00:56:39;18.00;99.90
10312;DHT22;5201;48.776;9.128;2022-09-09T01:01:36;17.80;99.90
10312;DHT22;5201;48.776;9.128;2022-09-09T01:04:07;17.70;99.90
10312;DHT22;5201;48.776;9.128;2022-09-09T01:06:36;17.80;99.90
10312;DHT22;5201;48.776;9.128;2022-09-09T01:09:26;17.80;99.90
10312;DHT22;5201;48.776;9.128;2022-09-09T01:17:24;17.90;99.90
10312;DHT22;5201;48.776;9.128;2022-09-09T01:19:52;18.00;99.90
10312;DHT22;5201;48.776;9.128;2022-09-09T01:22:42;18.00;99.90
10312;DHT22;5201;48.776;9.128;2022-09-09T01:25:29;18.00;99.90
10312;DHT22;5201;48.776;9.128;2022-09-09T01:28:04;18.00;99.90
10312;DHT22;5201;48.776;9.128;2022-09-09T01:30:34;17.90;99.90
10312;DHT22;5201;48.776;9.128;2022-09-09T01:33:00;17.90;99.90
10312;DHT22;5201;48.776;9.128;2022-09-09T01:35:48;17.70;99.90
10312;DHT22;5201;48.776;9.128;2022-09-09T01:38:17;17.70;99.90
10312;DHT22;5201;48.776;9.128;2022-09-09T01:40:43;17.70;99.90
10312;DHT22;5201;48.776;9.128;2022-09-09T01:43:09;17.80;99.90
10312;DHT22;5201;48.776;9.128;2022-09-09T01:45:35;17.80;99.90
10312;DHT22;5201;48.776;9.128;2022-09-09T01:48:02;17.90;99.90
10312;DHT22;5201;48.776;9.128;2022-09-09T01:50:28;17.90;99.90
10312;DHT22;5201;48.776;9.128;2022-09-09T01:52:59;17.90;99.90
10312;DHT22;5201;48.776;9.128;2022-09-09T01:55:40;17.90;99.90
10312;DHT22;5201;48.776;9.128;2022-09-09T02:01:34;17.90;99.90
10312;DHT22;5201;48.776;9.128;2022-09-09T02:03:46;17.90;99.90
10312;DHT22;5201;48.776;9.128;2022-09-09T02:08:48;17.80;99.90
10312;DHT22;5201;48.776;9.128;2022-09-09T02:11:19;17.70;99.90
10312;DHT22;5201;48.776;9.128;2022-09-09T02:13:47;17.70;99.90
10312;DHT22;5201;48.776;9.128;2022-09-09T02:19:09;17.70;99.90
10312;DHT22;5201;48.776;9.128;2022-09-09T02:21:39;17.60;99.90
10312;DHT22;5201;48.776;9.128;2022-09-09T02:24:07;17.70;99.90
10312;DHT22;5201;48.776;9.128;2022-09-09T02:26:38;17.60;99.90
10312;DHT22;5201;48.776;9.128;2022-09-09T02:29:09;17.60;99.90
10312;DHT22;5201;48.776;9.128;2022-09-09T02:31:36;17.50;99.90
10312;DHT22;5201;48.776;9.128;2022-09-09T02:34:05;17.60;99.90
10312;DHT22;5201;48.776;9.128;2022-09-09T02:36:34;17.50;99.90
10312;DHT22;5201;48.776;9.128;2022-09-09T02:39:00;17.50;99.90
10312;DHT22;5201;48.776;9.128;2022-09-09T02:41:36;17.60;99.90
10312;DHT22;5201;48.776;9.128;2022-09-09T02:44:05;17.50;99.90
10312;DHT22;5201;48.776;9.128;2022-09-09T02:49:34;17.40;99.90
10312;DHT22;5201;48.776;9.128;2022-09-09T02:52:06;17.20;99.90
10312;DHT22;5201;48.776;9.128;2022-09-09T02:54:34;17.50;99.90
10312;DHT22;5201;48.776;9.128;2022-09-09T02:57:22;17.20;99.90
10312;DHT22;5201;48.776;9.128;2022-09-09T02:59:50;17.30;99.90
10312;DHT22;5201;48.776;9.128;2022-09-09T03:02:17;17.30;99.90
10312;DHT22;5201;48.776;9.128;2022-09-09T03:04:44;17.20;99.90
10312;DHT22;5201;48.776;9.128;2022-09-09T03:07:10;17.20;99.90
10312;DHT22;5201;48.776;9.128;2022-09-09T03:09:36;17.20;99.90
10312;DHT22;5201;48.776;9.128;2022-09-09T03:12:02;17.20;99.90
10312;DHT22;5201;48.776;9.128;2022-09-09T03:14:29;17.30;99.90
10312;DHT22;5201;48.776;9.128;2022-09-09T03:16:56;17.30;99.90
10312;DHT22;5201;48.776;9.128;2022-09-09T03:19:23;17.20;99.90
10312;DHT22;5201;48.776;9.128;2022-09-09T03:21:49;17.20;99.90
10312;DHT22;5201;48.776;9.128;2022-09-09T03:24:15;17.00;99.90
10312;DHT22;5201;48.776;9.128;2022-09-09T03:26:41;16.90;99.90
10312;DHT22;5201;48.776;9.128;2022-09-09T03:29:10;16.90;99.90
10312;DHT22;5201;48.776;9.128;2022-09-09T03:31:38;16.60;99.90
10312;DHT22;5201;48.776;9.128;2022-09-09T03:34:04;16.40;99.90
10312;DHT22;5201;48.776;9.128;2022-09-09T03:36:29;16.20;99.90
10312;DHT22;5201;48.776;9.128;2022-09-09T03:38:55;16.10;99.90
10312;DHT22;5201;48.776;9.128;2022-09-09T03:41:22;16.10;99.90
10312;DHT22;5201;48.776;9.128;2022-09-09T03:43:53;16.40;99.90
10312;DHT22;5201;48.776;9.128;2022-09-09T03:46:20;16.50;99.90
10312;DHT22;5201;48.776;9.128;2022-09-09T03:48:46;16.70;99.90
10312;DHT22;5201;48.776;9.128;2022-09-09T03:51:12;16.80;99.90
10312;DHT22;5201;48.776;9.128;2022-09-09T03:53:38;16.80;99.90
10312;DHT22;5201;48.776;9.128;2022-09-09T03:56:05;16.90;99.90
10312;DHT22;5201;48.776;9.128;2022-09-09T03:58:33;16.90;99.90
10312;DHT22;5201;48.776;9.128;2022-09-09T04:01:08;17.00;99.90
10312;DHT22;5201;48.776;9.128;2022-09-09T04:03:34;17.00;99.90
10312;DHT22;5201;48.776;9.128;2022-09-09T04:06:00;17.00;99.90
10312;DHT22;5201;48.776;9.128;2022-09-09T04:08:28;17.00;99.90
10312;DHT22;5201;48.776;9.128;2022-09-09T04:10:55;17.00;99.90
10312;DHT22;5201;48.776;9.128;2022-09-09T04:13:24;17.10;99.90
10312;DHT22;5201;48.776;9.128;2022-09-09T04:16:00;17.00;99.90
10312;DHT22;5201;48.776;9.128;2022-09-09T04:18:26;17.00;99.90
10312;DHT22;5201;48.776;9.128;2022-09-09T04:20:54;17.10;99.90
10312;DHT22;5201;48.776;9.128;2022-09-09T04:23:20;17.10;99.90
10312;DHT22;5201;48.776;9.128;2022-09-09T04:25:46;17.10;99.90
10312;DHT22;5201;48.776;9.128;2022-09-09T04:28:13;17.20;99.90
10312;DHT22;5201;48.776;9.128;2022-09-09T04:30:39;17.60;99.90
10312;DHT22;5201;48.776;9.128;2022-09-09T04:33:06;17.30;99.90
10312;DHT22;5201;48.776;9.128;2022-09-09T04:35:32;17.20;99.90
10312;DHT22;5201;48.776;9.128;2022-09-09T04:37:58;17.20;99.90
10312;DHT22;5201;48.776;9.128;2022-09-09T04:40:24;17.30;99.90
10312;DHT22;5201;48.776;9.128;2022-09-09T04:42:50;17.30;99.90
10312;DHT22;5201;48.776;9.128;2022-09-09T04:45:16;17.40;99.90
10312;DHT22;5201;48.776;9.128;2022-09-09T04:47:42;17.30;99.90
10312;DHT22;5201;48.776;9.128;2022-09-09T04:50:08;17.20;99.90
10312;DHT22;5201;48.776;9.128;2022-09-09T04:52:35;17.20;99.90
10312;DHT22;5201;48.776;9.128;2022-09-09T04:55:01;17.20;99.90
10312;DHT22;5201;48.776;9.128;2022-09-09T04:57:27;17.20;99.90
10312;DHT22;5201;48.776;9.128;2022-09-09T04:59:53;17.20;99.90
10312;DHT22;5201;48.776;9.128;2022-09-09T05:02:18;17.10;99.90
10312;DHT22;5201;48.776;9.128;2022-09-09T05:04:44;17.10;99.90
10312;DHT22;5201;48.776;9.128;2022-09-09T05:07:10;17.00;99.90
10312;DHT22;5201;48.776;9.128;2022-09-09T05:09:35;17.10;99.90
10312;DHT22;5201;48.776;9.128;2022-09-09T05:12:01;17.10;99.90
10312;DHT22;5201;48.776;9.128;2022-09-09T05:14:28;17.20;99.90
10312;DHT22;5201;48.776;9.128;2022-09-09T05:16:54;17.20;99.90
10312;DHT22;5201;48.776;9.128;2022-09-09T05:19:21;17.20;99.90
10312;DHT22;5201;48.776;9.128;2022-09-09T05:21:47;17.30;99.90
10312;DHT22;5201;48.776;9.128;2022-09-09T05:24:13;17.30;99.90
10312;DHT22;5201;48.776;9.128;2022-09-09T05:26:38;17.40;99.90
10312;DHT22;5201;48.776;9.128;2022-09-09T05:29:04;17.30;99.90
10312;DHT22;5201;48.776;9.128;2022-09-09T05:31:30;17.30;99.90
10312;DHT22;5201;48.776;9.128;2022-09-09T05:33:56;17.40;99.90
10312;DHT22;5201;48.776;9.128;2022-09-09T05:36:22;17.40;99.90
10312;DHT22;5201;48.776;9.128;2022-09-09T05:38:48;17.40;99.90
10312;DHT22;5201;48.776;9.128;2022-09-09T05:41:14;17.40;99.90
10312;DHT22;5201;48.776;9.128;2022-09-09T05:43:41;17.40;99.90
10312;DHT22;5201;48.776;9.128;2022-09-09T05:46:19;17.40;99.90
10312;DHT22;5201;48.776;9.128;2022-09-09T05:48:46;17.40;99.90
10312;DHT22;5201;48.776;9.128;2022-09-09T05:51:14;17.50;99.90
10312;DHT22;5201;48.776;9.128;2022-09-09T05:53:44;17.50;99.90
10312;DHT22;5201;48.776;9.128;2022-09-09T05:56:15;17.50;99.90
10312;DHT22;5201;48.776;9.128;2022-09-09T05:58:41;17.60;99.90
10312;DHT22;5201;48.776;9.128;2022-09-09T06:01:25;18.00;99.90
10312;DHT22;5201;48.776;9.128;2022-09-09T06:03:52;17.70;99.90
10312;DHT22;5201;48.776;9.128;2022-09-09T06:06:26;17.80;99.90
10312;DHT22;5201;48.776;9.128;2022-09-09T06:08:56;17.70;99.90
10312;DHT22;5201;48.776;9.128;2022-09-09T06:11:27;15.60;99.90
10312;DHT22;5201;48.776;9.128;2022-09-09T06:13:53;17.70;99.90
10312;DHT22;5201;48.776;9.128;2022-09-09T06:16:22;17.80;99.90
10312;DHT22;5201;48.776;9.128;2022-09-09T06:18:52;17.70;99.90
10312;DHT22;5201;48.776;9.128;2022-09-09T06:21:21;17.70;99.90
10312;DHT22;5201;48.776;9.128;2022-09-09T06:23:47;17.70;99.90
10312;DHT22;5201;48.776;9.128;2022-09-09T06:26:17;17.70;99.90
10312;DHT22;5201;48.776;9.128;2022-09-09T06:28:46;17.70;99.90
10312;DHT22;5201;48.776;9.128;2022-09-09T06:31:14;17.70;99.90
10312;DHT22;5201;48.776;9.128;2022-09-09T06:33:41;17.70;99.90
10312;DHT22;5201;48.776;9.128;2022-09-09T06:36:11;17.70;99.90
10312;DHT22;5201;48.776;9.128;2022-09-09T06:38:37;17.80;99.90
10312;DHT22;5201;48.776;9.128;2022-09-09T06:41:03;17.80;99.90
10312;DHT22;5201;48.776;9.128;2022-09-09T06:43:34;17.80;99.90
10312;DHT22;5201;48.776;9.128;2022-09-09T06:46:26;17.70;99.90
10312;DHT22;5201;48.776;9.128;2022-09-09T06:48:53;17.70;99.90
10312;DHT22;5201;48.776;9.128;2022-09-09T06:51:28;17.70;99.90
10312;DHT22;5201;48.776;9.128;2022-09-09T06:53:55;17.70;99.90
10312;DHT22;5201;48.776;9.128;2022-09-09T06:56:22;17.80;99.90
10312;DHT22;5201;48.776;9.128;2022-09-09T06:58:50;17.80;99.90
10312;DHT22;5201;48.776;9.128;2022-09-09T07:01:18;17.90;99.90
10312;DHT22;5201;48.776;9.128;2022-09-09T07:03:50;18.00;99.90
10312;DHT22;5201;48.776;9.128;2022-09-09T07:06:19;18.10;99.90
10312;DHT22;5201;48.776;9.128;2022-09-09T07:09:06;18.10;99.90
10312;DHT22;5201;48.776;9.128;2022-09-09T07:11:47;18.10;99.90
10312;DHT22;5201;48.776;9.128;2022-09-09T07:14:14;18.10;99.90
10312;DHT22;5201;48.776;9.128;2022-09-09T07:16:43;18.20;99.90
10312;DHT22;5201;48.776;9.128;2022-09-09T07:19:10;18.30;99.90
10312;DHT22;5201;48.776;9.128;2022-09-09T07:21:36;18.30;99.90
10312;DHT22;5201;48.776;9.128;2022-09-09T07:24:02;18.40;99.90
10312;DHT22;5201;48.776;9.128;2022-09-09T07:26:30;18.50;99.90
10312;DHT22;5201;48.776;9.128;2022-09-09T07:28:56;18.50;99.90
10312;DHT22;5201;48.776;9.128;2022-09-09T07:31:30;18.80;99.90
10312;DHT22;5201;48.776;9.128;2022-09-09T07:33:56;18.60;99.90
10312;DHT22;5201;48.776;9.128;2022-09-09T07:36:24;18.80;99.90
10312;DHT22;5201;48.776;9.128;2022-09-09T07:38:53;19.00;99.90
10312;DHT22;5201;48.776;9.128;2022-09-09T07:41:34;19.10;99.90
10312;DHT22;5201;48.776;9.128;2022-09-09T07:44:12;19.30;99.90
10312;DHT22;5201;48.776;9.128;2022-09-09T07:46:38;19.40;99.90
10312;DHT22;5201;48.776;9.128;2022-09-09T07:49:08;19.70;99.90
10312;DHT22;5201;48.776;9.128;2022-09-09T07:51:42;19.80;99.90
10312;DHT22;5201;48.776;9.128;2022-09-09T07:54:10;19.80;99.90
10312;DHT22;5201;48.776;9.128;2022-09-09T07:56:37;20.00;99.90
10312;DHT22;5201;48.776;9.128;2022-09-09T07:59:03;20.00;99.90
10312;DHT22;5201;48.776;9.128;2022-09-09T08:01:40;20.10;99.90
10312;DHT22;5201;48.776;9.128;2022-09-09T08:04:09;20.20;99.90
10312;DHT22;5201;48.776;9.128;2022-09-09T08:06:38;20.30;99.90
10312;DHT22;5201;48.776;9.128;2022-09-09T08:09:05;20.40;99.90
10312;DHT22;5201;48.776;9.128;2022-09-09T08:11:31;20.50;99.90
10312;DHT22;5201;48.776;9.128;2022-09-09T08:13:58;20.70;99.90
10312;DHT22;5201;48.776;9.128;2022-09-09T08:16:27;20.60;99.90
10312;DHT22;5201;48.776;9.128;2022-09-09T08:18:53;20.50;99.90
10312;DHT22;5201;48.776;9.128;2022-09-09T08:21:22;20.60;99.90
10312;DHT22;5201;48.776;9.128;2022-09-09T08:23:51;20.60;99.90
10312;DHT22;5201;48.776;9.128;2022-09-09T08:26:38;20.70;99.90
10312;DHT22;5201;48.776;9.128;2022-09-09T08:29:05;20.50;99.90
10312;DHT22;5201;48.776;9.128;2022-09-09T08:31:37;20.60;99.90
10312;DHT22;5201;48.776;9.128;2022-09-09T08:34:03;20.70;99.90
10312;DHT22;5201;48.776;9.128;2022-09-09T08:36:31;21.00;99.90
10312;DHT22;5201;48.776;9.128;2022-09-09T08:38:59;21.20;99.90
10312;DHT22;5201;48.776;9.128;2022-09-09T08:52:32;22.60;99.90
10312;DHT22;5201;48.776;9.128;2022-09-09T08:57:52;22.80;99.90
10312;DHT22;5201;48.776;9.128;2022-09-09T09:00:18;23.10;99.90
10312;DHT22;5201;48.776;9.128;2022-09-09T09:05:36;23.50;99.20
10312;DHT22;5201;48.776;9.128;2022-09-09T09:10:49;23.10;99.30
10312;DHT22;5201;48.776;9.128;2022-09-09T09:13:32;22.60;99.20
10312;DHT22;5201;48.776;9.128;2022-09-09T09:16:07;22.20;99.90
10312;DHT22;5201;48.776;9.128;2022-09-09T09:18:35;22.00;99.90
10312;DHT22;5201;48.776;9.128;2022-09-09T09:21:13;21.50;99.90
10312;DHT22;5201;48.776;9.128;2022-09-09T09:23:47;21.20;99.90
10312;DHT22;5201;48.776;9.128;2022-09-09T09:26:16;20.90;99.90
10312;DHT22;5201;48.776;9.128;2022-09-09T09:28:44;20.60;99.90
10312;DHT22;5201;48.776;9.128;2022-09-09T09:31:11;20.40;99.90
10312;DHT22;5201;48.776;9.128;2022-09-09T09:36:10;20.10;99.90
10312;DHT22;5201;48.776;9.128;2022-09-09T09:38:36;19.90;99.90
10312;DHT22;5201;48.776;9.128;2022-09-09T09:41:03;20.30;99.90
10312;DHT22;5201;48.776;9.128;2022-09-09T09:45:56;20.50;99.90
10312;DHT22;5201;48.776;9.128;2022-09-09T09:48:23;21.00;99.90
10312;DHT22;5201;48.776;9.128;2022-09-09T09:50:52;21.60;99.90
10312;DHT22;5201;48.776;9.128;2022-09-09T09:53:26;22.20;99.80
10312;DHT22;5201;48.776;9.128;2022-09-09T09:55:59;22.70;99.90
10312;DHT22;5201;48.776;9.128;2022-09-09T09:58:29;23.20;98.70
10312;DHT22;5201;48.776;9.128;2022-09-09T10:00:56;23.80;98.40
10312;DHT22;5201;48.776;9.128;2022-09-09T10:03:31;24.10;97.50
10312;DHT22;5201;48.776;9.128;2022-09-09T10:05:57;24.40;97.50
10312;DHT22;5201;48.776;9.128;2022-09-09T10:08:24;24.60;98.40
10312;DHT22;5201;48.776;9.128;2022-09-09T10:17:17;24.70;96.00
10312;DHT22;5201;48.776;9.128;2022-09-09T10:20:17;25.40;95.10
10312;DHT22;5201;48.776;9.128;2022-09-09T10:22:54;25.70;94.40
10312;DHT22;5201;48.776;9.128;2022-09-09T10:25:39;25.90;95.10
10312;DHT22;5201;48.776;9.128;2022-09-09T10:31:11;25.80;94.40
10312;DHT22;5201;48.776;9.128;2022-09-09T10:36:48;25.90;94.80
10312;DHT22;5201;48.776;9.128;2022-09-09T10:39:39;25.80;95.30
10312;DHT22;5201;48.776;9.128;2022-09-09T10:42:14;25.40;94.30
10312;DHT22;5201;48.776;9.128;2022-09-09T10:44:52;25.90;95.70
10312;DHT22;5201;48.776;9.128;2022-09-09T10:47:55;26.50;94.00
10312;DHT22;5201;48.776;9.128;2022-09-09T10:50:56;26.40;93.20
10312;DHT22;5201;48.776;9.128;2022-09-09T10:54:25;27.00;92.70
10312;DHT22;5201;48.776;9.128;2022-09-09T10:56:31;26.60;92.90
10312;DHT22;5201;48.776;9.128;2022-09-09T10:59:04;26.10;93.10
10312;DHT22;5201;48.776;9.128;2022-09-09T11:04:42;25.30;94.00
10312;DHT22;5201;48.776;9.128;2022-09-09T11:07:14;24.90;94.80
10312;DHT22;5201;48.776;9.128;2022-09-09T11:09:49;24.60;94.80
10312;DHT22;5201;48.776;9.128;2022-09-09T11:12:19;24.20;94.50
10312;DHT22;5201;48.776;9.128;2022-09-09T11:14:50;23.90;94.30
10312;DHT22;5201;48.776;9.128;2022-09-09T11:17:26;23.50;94.20
10312;DHT22;5201;48.776;9.128;2022-09-09T11:19:54;23.10;95.10
10312;DHT22;5201;48.776;9.128;2022-09-09T11:22:39;22.70;94.40
10312;DHT22;5201;48.776;9.128;2022-09-09T11:25:16;22.50;94.30
10312;DHT22;5201;48.776;9.128;2022-09-09T11:30:36;22.30;95.00
10312;DHT22;5201;48.776;9.128;2022-09-09T11:33:28;22.30;94.80
10312;DHT22;5201;48.776;9.128;2022-09-09T11:39:11;21.70;97.60
10312;DHT22;5201;48.776;9.128;2022-09-09T11:41:43;21.50;97.20
10312;DHT22;5201;48.776;9.128;2022-09-09T11:44:17;21.20;97.70
10312;DHT22;5201;48.776;9.128;2022-09-09T11:46:49;21.10;97.90
10312;DHT22;5201;48.776;9.128;2022-09-09T11:49:42;21.00;98.10
10312;DHT22;5201;48.776;9.128;2022-09-09T11:52:22;20.70;98.90
10312;DHT22;5201;48.776;9.128;2022-09-09T11:54:49;20.90;98.90
10312;DHT22;5201;48.776;9.128;2022-09-09T11:57:34;20.90;99.40
10312;DHT22;5201;48.776;9.128;2022-09-09T12:00:00;21.10;99.10
10312;DHT22;5201;48.776;9.128;2022-09-09T12:02:28;21.30;98.00
10312;DHT22;5201;48.776;9.128;2022-09-09T12:05:07;21.20;97.50
10312;DHT22;5201;48.776;9.128;2022-09-09T12:07:40;21.20;98.60
10312;DHT22;5201;48.776;9.128;2022-09-09T12:10:27;21.20;98.70
10312;DHT22;5201;48.776;9.128;2022-09-09T12:12:54;21.30;98.70
10312;DHT22;5201;48.776;9.128;2022-09-09T12:15:24;21.70;98.20
10312;DHT22;5201;48.776;9.128;2022-09-09T12:17:53;22.00;97.30
10312;DHT22;5201;48.776;9.128;2022-09-09T12:20:23;22.30;96.70
10312;DHT22;5201;48.776;9.128;2022-09-09T12:28:23;22.10;96.50
10312;DHT22;5201;48.776;9.128;2022-09-09T12:31:12;22.10;96.50
10312;DHT22;5201;48.776;9.128;2022-09-09T12:33:44;22.30;95.40
10312;DHT22;5201;48.776;9.128;2022-09-09T12:36:27;22.50;95.50
10312;DHT22;5201;48.776;9.128;2022-09-09T12:38:54;22.00;96.20
10312;DHT22;5201;48.776;9.128;2022-09-09T12:41:23;22.00;94.70
10312;DHT22;5201;48.776;9.128;2022-09-09T12:43:50;22.10;95.40
10312;DHT22;5201;48.776;9.128;2022-09-09T12:46:35;22.00;95.40
10312;DHT22;5201;48.776;9.128;2022-09-09T12:49:02;22.00;96.50
10312;DHT22;5201;48.776;9.128;2022-09-09T12:51:30;21.80;96.00
10312;DHT22;5201;48.776;9.128;2022-09-09T12:53:56;21.90;95.70
10312;DHT22;5201;48.776;9.128;2022-09-09T12:56:28;21.90;95.70
10312;DHT22;5201;48.776;9.128;2022-09-09T12:58:56;21.90;95.90
10312;DHT22;5201;48.776;9.128;2022-09-09T13:01:28;21.70;96.20
10312;DHT22;5201;48.776;9.128;2022-09-09T13:03:54;21.80;96.50
10312;DHT22;5201;48.776;9.128;2022-09-09T13:06:25;22.10;96.00
10312;DHT22;5201;48.776;9.128;2022-09-09T13:08:52;22.00;96.20
10312;DHT22;5201;48.776;9.128;2022-09-09T13:11:26;22.00;95.60
10312;DHT22;5201;48.776;9.128;2022-09-09T13:13:55;22.00;96.60
10312;DHT22;5201;48.776;9.128;2022-09-09T13:16:34;21.80;95.80
10312;DHT22;5201;48.776;9.128;2022-09-09T13:19:06;21.90;97.00
10312;DHT22;5201;48.776;9.128;2022-09-09T13:21:38;21.90;97.10
10312;DHT22;5201;48.776;9.128;2022-09-09T13:24:33;22.00;96.40
10312;DHT22;5201;48.776;9.128;2022-09-09T13:29:52;22.20;96.30
10312;DHT22;5201;48.776;9.128;2022-09-09T13:32:20;22.20;96.70
10312;DHT22;5201;48.776;9.128;2022-09-09T13:35:00;22.60;95.90
10312;DHT22;5201;48.776;9.128;2022-09-09T13:37:33;22.40;96.00
10312;DHT22;5201;48.776;9.128;2022-09-09T13:39:59;22.40;96.40
10312;DHT22;5201;48.776;9.128;2022-09-09T13:42:30;22.40;95.30
10312;DHT22;5201;48.776;9.128;2022-09-09T13:44:58;22.30;95.50
10312;DHT22;5201;48.776;9.128;2022-09-09T13:47:34;22.30;94.30
10312;DHT22;5201;48.776;9.128;2022-09-09T13:52:52;22.30;95.10
10312;DHT22;5201;48.776;9.128;2022-09-09T13:55:20;22.40;94.10
10312;DHT22;5201;48.776;9.128;2022-09-09T13:57:54;22.40;94.00
10312;DHT22;5201;48.776;9.128;2022-09-09T14:00:21;22.50;93.80
10312;DHT22;5201;48.776;9.128;2022-09-09T14:02:48;22.60;94.60
10312;DHT22;5201;48.776;9.128;2022-09-09T14:05:13;22.50;93.20
10312;DHT22;5201;48.776;9.128;2022-09-09T14:07:42;22.50;93.10
10312;DHT22;5201;48.776;9.128;2022-09-09T14:10:09;22.50;93.70
10312;DHT22;5201;48.776;9.128;2022-09-09T14:12:34;22.50;92.80
10312;DHT22;5201;48.776;9.128;2022-09-09T14:15:02;22.50;93.10
10312;DHT22;5201;48.776;9.128;2022-09-09T14:17:28;22.50;93.30
10312;DHT22;5201;48.776;9.128;2022-09-09T14:19:57;22.60;93.50
10312;DHT22;5201;48.776;9.128;2022-09-09T14:22:23;22.50;93.20
10312;DHT22;5201;48.776;9.128;2022-09-09T14:24:49;22.40;93.10
10312;DHT22;5201;48.776;9.128;2022-09-09T14:27:16;22.40;93.90
10312;DHT22;5201;48.776;9.128;2022-09-09T14:29:41;22.40;94.10
10312;DHT22;5201;48.776;9.128;2022-09-09T14:32:08;22.40;93.80
10312;DHT22;5201;48.776;9.128;2022-09-09T14:34:34;22.40;93.00
10312;DHT22;5201;48.776;9.128;2022-09-09T14:37:00;22.40;93.10
10312;DHT22;5201;48.776;9.128;2022-09-09T14:39:26;22.50;92.60
10312;DHT22;5201;48.776;9.128;2022-09-09T14:41:52;22.60;92.30
10312;DHT22;5201;48.776;9.128;2022-09-09T14:44:17;22.50;93.40
10312;DHT22;5201;48.776;9.128;2022-09-09T14:46:44;22.50;93.10
10312;DHT22;5201;48.776;9.128;2022-09-09T14:49:09;22.60;92.60
10312;DHT22;5201;48.776;9.128;2022-09-09T14:51:35;22.50;93.30
10312;DHT22;5201;48.776;9.128;2022-09-09T14:54:01;22.50;93.40
10312;DHT22;5201;48.776;9.128;2022-09-09T14:56:30;22.40;92.90
10312;DHT22;5201;48.776;9.128;2022-09-09T14:58:57;22.60;92.30
10312;DHT22;5201;48.776;9.128;2022-09-09T15:01:24;22.50;93.00
10312;DHT22;5201;48.776;9.128;2022-09-09T15:03:55;22.60;91.90
10312;DHT22;5201;48.776;9.128;2022-09-09T15:06:22;22.60;91.80
10312;DHT22;5201;48.776;9.128;2022-09-09T15:08:50;22.50;92.30
10312;DHT22;5201;48.776;9.128;2022-09-09T15:11:16;22.40;92.60
10312;DHT22;5201;48.776;9.128;2022-09-09T15:13:43;22.40;92.00
10312;DHT22;5201;48.776;9.128;2022-09-09T15:16:14;22.30;92.20
10312;DHT22;5201;48.776;9.128;2022-09-09T15:18:40;22.50;92.80
10312;DHT22;5201;48.776;9.128;2022-09-09T15:21:09;22.20;92.30
10312;DHT22;5201;48.776;9.128;2022-09-09T15:23:35;22.10;92.70
10312;DHT22;5201;48.776;9.128;2022-09-09T15:26:02;22.10;93.20
10312;DHT22;5201;48.776;9.128;2022-09-09T15:28:28;22.20;92.90
10312;DHT22;5201;48.776;9.128;2022-09-09T15:30:54;22.30;92.60
10312;DHT22;5201;48.776;9.128;2022-09-09T15:33:21;22.20;92.70
10312;DHT22;5201;48.776;9.128;2022-09-09T15:35:47;22.10;93.20
10312;DHT22;5201;48.776;9.128;2022-09-09T15:38:12;22.30;92.90
10312;DHT22;5201;48.776;9.128;2022-09-09T15:40:39;22.30;92.70
10312;DHT22;5201;48.776;9.128;2022-09-09T15:43:05;22.30;93.10
10312;DHT22;5201;48.776;9.128;2022-09-09T15:45:32;22.30;93.20
10312;DHT22;5201;48.776;9.128;2022-09-09T15:47:59;22.30;93.40
10312;DHT22;5201;48.776;9.128;2022-09-09T15:50:25;22.20;93.40
10312;DHT22;5201;48.776;9.128;2022-09-09T15:52:51;22.20;93.80
10312;DHT22;5201;48.776;9.128;2022-09-09T15:55:19;22.10;93.20
10312;DHT22;5201;48.776;9.128;2022-09-09T15:57:46;22.00;93.00
10312;DHT22;5201;48.776;9.128;2022-09-09T16:00:12;22.00;93.40
10312;DHT22;5201;48.776;9.128;2022-09-09T16:02:39;21.90;93.80
10312;DHT22;5201;48.776;9.128;2022-09-09T16:05:05;21.90;92.90
10312;DHT22;5201;48.776;9.128;2022-09-09T16:07:31;21.70;92.90
10312;DHT22;5201;48.776;9.128;2022-09-09T16:09:56;21.60;93.60
10312;DHT22;5201;48.776;9.128;2022-09-09T16:12:22;21.70;93.30
10312;DHT22;5201;48.776;9.128;2022-09-09T16:14:47;21.70;93.20
10312;DHT22;5201;48.776;9.128;2022-09-09T16:17:13;21.50;94.00
10312;DHT22;5201;48.776;9.128;2022-09-09T16:19:39;21.50;94.30
10312;DHT22;5201;48.776;9.128;2022-09-09T16:22:05;21.50;93.20
10312;DHT22;5201;48.776;9.128;2022-09-09T16:24:32;21.60;93.70
10312;DHT22;5201;48.776;9.128;2022-09-09T16:26:57;21.40;93.70
10312;DHT22;5201;48.776;9.128;2022-09-09T16:29:24;21.40;94.10
10312;DHT22;5201;48.776;9.128;2022-09-09T16:31:53;21.40;93.80
10312;DHT22;5201;48.776;9.128;2022-09-09T16:34:20;21.30;93.90
10312;DHT22;5201;48.776;9.128;2022-09-09T16:36:47;21.30;94.30
10312;DHT22;5201;48.776;9.128;2022-09-09T16:39:17;21.20;94.50
10312;DHT22;5201;48.776;9.128;2022-09-09T16:41:44;21.30;95.10
10312;DHT22;5201;48.776;9.128;2022-09-09T16:44:11;20.80;95.30
10312;DHT22;5201;48.776;9.128;2022-09-09T16:46:39;20.50;94.80
10312;DHT22;5201;48.776;9.128;2022-09-09T16:49:09;20.50;94.80
10312;DHT22;5201;48.776;9.128;2022-09-09T16:51:38;20.40;96.30
10312;DHT22;5201;48.776;9.128;2022-09-09T16:54:05;20.30;98.40
10312;DHT22;5201;48.776;9.128;2022-09-09T16:56:34;20.10;99.00
10312;DHT22;5201;48.776;9.128;2022-09-09T16:59:08;19.90;98.70
10312;DHT22;5201;48.776;9.128;2022-09-09T17:01:36;19.90;99.10
10312;DHT22;5201;48.776;9.128;2022-09-09T17:04:08;20.10;98.70
10312;DHT22;5201;48.776;9.128;2022-09-09T17:06:35;19.80;98.00
10312;DHT22;5201;48.776;9.128;2022-09-09T17:09:06;19.70;98.20
10312;DHT22;5201;48.776;9.128;2022-09-09T17:11:33;19.60;97.70
10312;DHT22;5201;48.776;9.128;2022-09-09T17:13:59;19.60;97.90
10312;DHT22;5201;48.776;9.128;2022-09-09T17:16:28;19.60;97.80
10312;DHT22;5201;48.776;9.128;2022-09-09T17:18:54;19.60;98.00
10312;DHT22;5201;48.776;9.128;2022-09-09T17:21:22;19.50;97.80
10312;DHT22;5201;48.776;9.128;2022-09-09T17:23:49;19.40;98.20
10312;DHT22;5201;48.776;9.128;2022-09-09T17:26:17;19.70;99.20
10312;DHT22;5201;48.776;9.128;2022-09-09T17:28:43;19.30;98.50
10312;DHT22;5201;48.776;9.128;2022-09-09T17:31:12;19.40;98.80
10312;DHT22;5201;48.776;9.128;2022-09-09T17:33:43;19.30;98.70
10312;DHT22;5201;48.776;9.128;2022-09-09T17:36:12;19.20;99.40
10312;DHT22;5201;48.776;9.128;2022-09-09T17:38:39;19.20;99.70
10312;DHT22;5201;48.776;9.128;2022-09-09T17:43:35;20.40;99.90
10312;DHT22;5201;48.776;9.128;2022-09-09T17:46:10;19.10;99.30